sensor_id;sensor_type;location;lat;lon;timestamp;P1;durP1;ratioP1;P2;durP2;ratioP2
61112;SDS011;47184;57.998;56.184;2023-12-07T00:00:47;348.87;;;215.47;;
61112;SDS011;47184;57.998;56.184;2023-12-07T00:10:48;367.93;;;224.37;;
61112;SDS011;47184;57.998;56.184;2023-12-07T00:20:49;367.57;;;225.47;;
61112;SDS011;47184;57.998;56.184;2023-12-07T00:30:50;356.73;;;227.05;;
61112;SDS011;47184;57.998;56.184;2023-12-07T00:40:51;361.67;;;227.77;;
61112;SDS011;47184;57.998;56.184;2023-12-07T00:50:52;379.23;;;236.80;;
61112;SDS011;47184;57.998;56.184;2023-12-07T01:00:53;388.35;;;242.77;;
61112;SDS011;47184;57.998;56.184;2023-12-07T01:10:55;364.83;;;229.43;;
61112;SDS011;47184;57.998;56.184;2023-12-07T01:20:55;378.63;;;243.10;;
61112;SDS011;47184;57.998;56.184;2023-12-07T01:30:56;375.63;;;240.83;;
61112;SDS011;47184;57.998;56.184;2023-12-07T01:40:57;392.80;;;241.68;;
61112;SDS011;47184;57.998;56.184;2023-12-07T01:50:58;376.90;;;236.77;;
61112;SDS011;47184;57.998;56.184;2023-12-07T02:01:00;380.77;;;239.73;;
61112;SDS011;47184;57.998;56.184;2023-12-07T02:11:02;361.67;;;228.93;;
61112;SDS011;47184;57.998;56.184;2023-12-07T02:21:18;370.60;;;232.90;;
61112;SDS011;47184;57.998;56.184;2023-12-07T02:31:25;325.73;;;203.50;;
61112;SDS011;47184;57.998;56.184;2023-12-07T02:41:29;303.42;;;188.07;;
61112;SDS011;47184;57.998;56.184;2023-12-07T02:51:34;283.98;;;173.18;;
61112;SDS011;47184;57.998;56.184;2023-12-07T03:01:35;244.77;;;151.63;;
61112;SDS011;47184;57.998;56.184;2023-12-07T03:11:36;221.18;;;137.25;;
61112;SDS011;47184;57.998;56.184;2023-12-07T03:21:41;202.93;;;123.97;;
61112;SDS011;47184;57.998;56.184;2023-12-07T03:31:45;186.38;;;116.32;;
61112;SDS011;47184;57.998;56.184;2023-12-07T03:41:47;426.25;;;277.60;;
61112;SDS011;47184;57.998;56.184;2023-12-07T03:51:48;408.23;;;259.10;;
61112;SDS011;47184;57.998;56.184;2023-12-07T04:01:49;421.97;;;266.33;;
61112;SDS011;47184;57.998;56.184;2023-12-07T04:11:50;442.30;;;292.53;;
61112;SDS011;47184;57.998;56.184;2023-12-07T04:21:51;455.10;;;296.47;;
61112;SDS011;47184;57.998;56.184;2023-12-07T04:31:52;396.97;;;263.80;;
61112;SDS011;47184;57.998;56.184;2023-12-07T04:41:53;423.33;;;275.57;;
61112;SDS011;47184;57.998;56.184;2023-12-07T04:51:54;383.83;;;241.47;;
61112;SDS011;47184;57.998;56.184;2023-12-07T05:01:55;369.53;;;239.77;;
61112;SDS011;47184;57.998;56.184;2023-12-07T05:11:56;372.07;;;241.00;;
61112;SDS011;47184;57.998;56.184;2023-12-07T05:31:59;363.38;;;231.35;;
61112;SDS011;47184;57.998;56.184;2023-12-07T05:42:00;324.77;;;206.43;;
61112;SDS011;47184;57.998;56.184;2023-12-07T05:52:01;324.43;;;203.50;;
61112;SDS011;47184;57.998;56.184;2023-12-07T06:12:04;325.67;;;204.63;;
61112;SDS011;47184;57.998;56.184;2023-12-07T06:22:06;320.13;;;205.30;;
61112;SDS011;47184;57.998;56.184;2023-12-07T06:32:07;295.17;;;191.20;;
61112;SDS011;47184;57.998;56.184;2023-12-07T06:42:08;315.50;;;199.60;;
61112;SDS011;47184;57.998;56.184;2023-12-07T06:52:09;324.93;;;213.50;;
61112;SDS011;47184;57.998;56.184;2023-12-07T07:02:11;325.13;;;211.02;;
61112;SDS011;47184;57.998;56.184;2023-12-07T07:12:12;331.88;;;210.45;;
61112;SDS011;47184;57.998;56.184;2023-12-07T07:22:13;315.73;;;207.38;;
61112;SDS011;47184;57.998;56.184;2023-12-07T07:32:14;310.63;;;201.93;;
61112;SDS011;47184;57.998;56.184;2023-12-07T07:42:16;333.90;;;219.90;;
61112;SDS011;47184;57.998;56.184;2023-12-07T07:52:17;356.37;;;231.47;;
61112;SDS011;47184;57.998;56.184;2023-12-07T08:02:19;355.90;;;226.87;;
61112;SDS011;47184;57.998;56.184;2023-12-07T08:12:22;315.70;;;214.85;;
61112;SDS011;47184;57.998;56.184;2023-12-07T08:22:23;308.85;;;203.90;;
61112;SDS011;47184;57.998;56.184;2023-12-07T08:32:24;287.47;;;187.60;;
61112;SDS011;47184;57.998;56.184;2023-12-07T08:42:29;239.88;;;152.23;;
61112;SDS011;47184;57.998;56.184;2023-12-07T08:52:32;198.98;;;127.45;;
61112;SDS011;47184;57.998;56.184;2023-12-07T09:02:33;186.33;;;122.60;;
61112;SDS011;47184;57.998;56.184;2023-12-07T09:12:34;167.77;;;111.37;;
61112;SDS011;47184;57.998;56.184;2023-12-07T09:22:39;156.95;;;103.97;;
61112;SDS011;47184;57.998;56.184;2023-12-07T09:32:44;152.32;;;100.47;;
61112;SDS011;47184;57.998;56.184;2023-12-07T09:42:45;143.40;;;94.60;;
61112;SDS011;47184;57.998;56.184;2023-12-07T09:52:51;157.90;;;103.43;;
61112;SDS011;47184;57.998;56.184;2023-12-07T10:02:55;166.20;;;108.90;;
61112;SDS011;47184;57.998;56.184;2023-12-07T10:12:58;166.10;;;110.17;;
61112;SDS011;47184;57.998;56.184;2023-12-07T10:33:08;192.00;;;126.53;;
61112;SDS011;47184;57.998;56.184;2023-12-07T10:43:09;205.13;;;133.10;;
61112;SDS011;47184;57.998;56.184;2023-12-07T10:53:27;193.43;;;127.32;;
61112;SDS011;47184;57.998;56.184;2023-12-07T11:03:31;224.50;;;145.57;;
61112;SDS011;47184;57.998;56.184;2023-12-07T11:23:38;248.30;;;162.15;;
61112;SDS011;47184;57.998;56.184;2023-12-07T11:33:42;248.70;;;167.25;;
61112;SDS011;47184;57.998;56.184;2023-12-07T11:43:44;260.17;;;168.70;;
61112;SDS011;47184;57.998;56.184;2023-12-07T11:53:46;268.60;;;171.43;;
61112;SDS011;47184;57.998;56.184;2023-12-07T12:03:49;279.77;;;183.63;;
61112;SDS011;47184;57.998;56.184;2023-12-07T12:13:50;279.53;;;179.80;;
61112;SDS011;47184;57.998;56.184;2023-12-07T12:23:51;247.87;;;163.00;;
61112;SDS011;47184;57.998;56.184;2023-12-07T12:33:53;260.87;;;172.83;;
61112;SDS011;47184;57.998;56.184;2023-12-07T12:43:54;276.42;;;182.75;;
61112;SDS011;47184;57.998;56.184;2023-12-07T12:53:55;297.03;;;189.93;;
61112;SDS011;47184;57.998;56.184;2023-12-07T13:03:57;279.52;;;183.18;;
61112;SDS011;47184;57.998;56.184;2023-12-07T13:13:58;329.40;;;217.17;;
61112;SDS011;47184;57.998;56.184;2023-12-07T13:23:59;297.05;;;194.90;;
61112;SDS011;47184;57.998;56.184;2023-12-07T13:34:01;280.57;;;184.33;;
61112;SDS011;47184;57.998;56.184;2023-12-07T13:44:02;301.80;;;195.68;;
61112;SDS011;47184;57.998;56.184;2023-12-07T13:54:03;303.53;;;199.83;;
61112;SDS011;47184;57.998;56.184;2023-12-07T14:04:05;302.30;;;203.90;;
61112;SDS011;47184;57.998;56.184;2023-12-07T14:14:08;290.58;;;190.98;;
61112;SDS011;47184;57.998;56.184;2023-12-07T14:24:09;289.65;;;190.35;;
61112;SDS011;47184;57.998;56.184;2023-12-07T14:34:11;273.02;;;173.82;;
61112;SDS011;47184;57.998;56.184;2023-12-07T14:44:14;263.25;;;169.07;;
61112;SDS011;47184;57.998;56.184;2023-12-07T14:54:16;255.40;;;164.13;;
61112;SDS011;47184;57.998;56.184;2023-12-07T15:04:18;250.43;;;160.73;;
61112;SDS011;47184;57.998;56.184;2023-12-07T15:14:19;266.63;;;168.67;;
61112;SDS011;47184;57.998;56.184;2023-12-07T15:34:22;280.55;;;187.15;;
61112;SDS011;47184;57.998;56.184;2023-12-07T15:44:23;302.73;;;193.35;;
61112;SDS011;47184;57.998;56.184;2023-12-07T15:54:25;287.27;;;185.07;;
61112;SDS011;47184;57.998;56.184;2023-12-07T16:04:28;299.52;;;191.68;;
61112;SDS011;47184;57.998;56.184;2023-12-07T16:14:30;328.52;;;208.40;;
61112;SDS011;47184;57.998;56.184;2023-12-07T16:24:33;317.33;;;202.63;;
61112;SDS011;47184;57.998;56.184;2023-12-07T16:34:35;315.35;;;197.50;;
61112;SDS011;47184;57.998;56.184;2023-12-07T16:44:36;338.60;;;213.10;;
61112;SDS011;47184;57.998;56.184;2023-12-07T17:04:39;303.73;;;188.63;;
61112;SDS011;47184;57.998;56.184;2023-12-07T17:14:41;285.33;;;175.10;;
61112;SDS011;47184;57.998;56.184;2023-12-07T17:24:43;262.95;;;173.80;;
61112;SDS011;47184;57.998;56.184;2023-12-07T17:34:44;262.90;;;163.00;;
61112;SDS011;47184;57.998;56.184;2023-12-07T17:44:46;253.13;;;154.20;;
61112;SDS011;47184;57.998;56.184;2023-12-07T17:54:47;229.73;;;143.77;;
61112;SDS011;47184;57.998;56.184;2023-12-07T18:04:49;214.27;;;136.30;;
61112;SDS011;47184;57.998;56.184;2023-12-07T18:14:50;197.57;;;126.87;;
61112;SDS011;47184;57.998;56.184;2023-12-07T18:24:53;197.70;;;123.87;;
